sensor_id;sensor_type;location;lat;lon;timestamp;temperature;humidity
36384;DHT22;22418;51.210;6.976;2023-01-16T00:02:21;8.60;99.90
36384;DHT22;22418;51.210;6.976;2023-01-16T00:04:52;8.60;99.90
36384;DHT22;22418;51.210;6.976;2023-01-16T00:07:22;8.60;99.90
36384;DHT22;22418;51.210;6.976;2023-01-16T00:09:53;8.60;99.90
36384;DHT22;22418;51.210;6.976;2023-01-16T00:12:23;8.60;99.90
36384;DHT22;22418;51.210;6.976;2023-01-16T00:14:54;8.60;99.90
36384;DHT22;22418;51.210;6.976;2023-01-16T00:17:24;8.60;99.90
36384;DHT22;22418;51.210;6.976;2023-01-16T00:19:55;8.60;99.90
36384;DHT22;22418;51.210;6.976;2023-01-16T00:22:25;8.60;99.90
36384;DHT22;22418;51.210;6.976;2023-01-16T00:24:56;8.50;99.90
36384;DHT22;22418;51.210;6.976;2023-01-16T00:27:26;8.60;99.90
36384;DHT22;22418;51.210;6.976;2023-01-16T00:29:57;8.60;99.90
36384;DHT22;22418;51.210;6.976;2023-01-16T00:32:28;8.50;99.90
36384;DHT22;22418;51.210;6.976;2023-01-16T00:34:58;8.60;99.90
36384;DHT22;22418;51.210;6.976;2023-01-16T00:37:29;8.40;99.90
36384;DHT22;22418;51.210;6.976;2023-01-16T00:39:59;8.40;99.90
36384;DHT22;22418;51.210;6.976;2023-01-16T00:42:30;8.40;99.90
36384;DHT22;22418;51.210;6.976;2023-01-16T00:45:00;8.30;99.90
36384;DHT22;22418;51.210;6.976;2023-01-16T00:47:31;8.30;99.90
36384;DHT22;22418;51.210;6.976;2023-01-16T00:50:01;8.30;99.90
36384;DHT22;22418;51.210;6.976;2023-01-16T00:52:32;8.20;99.90
36384;DHT22;22418;51.210;6.976;2023-01-16T00:55:03;8.30;99.90
36384;DHT22;22418;51.210;6.976;2023-01-16T00:57:34;8.30;99.90
36384;DHT22;22418;51.210;6.976;2023-01-16T01:00:05;8.30;99.90
36384;DHT22;22418;51.210;6.976;2023-01-16T01:02:36;8.30;99.90
36384;DHT22;22418;51.210;6.976;2023-01-16T01:05:06;8.30;99.90
36384;DHT22;22418;51.210;6.976;2023-01-16T01:07:37;8.30;99.90
36384;DHT22;22418;51.210;6.976;2023-01-16T01:10:09;8.30;99.90
36384;DHT22;22418;51.210;6.976;2023-01-16T01:12:39;8.20;99.90
36384;DHT22;22418;51.210;6.976;2023-01-16T01:15:10;8.10;99.90
36384;DHT22;22418;51.210;6.976;2023-01-16T01:17:41;8.10;99.90
36384;DHT22;22418;51.210;6.976;2023-01-16T01:20:11;8.20;99.90
36384;DHT22;22418;51.210;6.976;2023-01-16T01:22:44;8.10;99.90
36384;DHT22;22418;51.210;6.976;2023-01-16T01:25:15;8.10;99.90
36384;DHT22;22418;51.210;6.976;2023-01-16T01:27:45;8.00;99.90
36384;DHT22;22418;51.210;6.976;2023-01-16T01:30:16;8.00;99.90
36384;DHT22;22418;51.210;6.976;2023-01-16T01:32:47;8.10;99.90
36384;DHT22;22418;51.210;6.976;2023-01-16T01:35:17;8.10;99.90
36384;DHT22;22418;51.210;6.976;2023-01-16T01:37:49;8.10;99.90
36384;DHT22;22418;51.210;6.976;2023-01-16T01:40:20;8.20;99.90
36384;DHT22;22418;51.210;6.976;2023-01-16T01:42:51;8.20;99.90
36384;DHT22;22418;51.210;6.976;2023-01-16T01:45:29;8.20;99.90
36384;DHT22;22418;51.210;6.976;2023-01-16T01:48:20;8.20;99.90
36384;DHT22;22418;51.210;6.976;2023-01-16T01:51:00;8.20;99.90
36384;DHT22;22418;51.210;6.976;2023-01-16T01:53:48;8.20;99.90
36384;DHT22;22418;51.210;6.976;2023-01-16T01:56:27;8.30;99.90
36384;DHT22;22418;51.210;6.976;2023-01-16T01:59:01;8.30;99.90
36384;DHT22;22418;51.210;6.976;2023-01-16T02:01:32;8.30;99.90
36384;DHT22;22418;51.210;6.976;2023-01-16T02:04:08;8.30;99.90
36384;DHT22;22418;51.210;6.976;2023-01-16T02:06:53;8.40;99.90
36384;DHT22;22418;51.210;6.976;2023-01-16T02:09:25;8.40;99.90
36384;DHT22;22418;51.210;6.976;2023-01-16T02:12:00;8.40;99.90
36384;DHT22;22418;51.210;6.976;2023-01-16T02:14:33;8.40;99.90
36384;DHT22;22418;51.210;6.976;2023-01-16T02:17:09;8.30;99.90
36384;DHT22;22418;51.210;6.976;2023-01-16T02:20:22;8.30;99.90
36384;DHT22;22418;51.210;6.976;2023-01-16T02:28:33;8.20;99.90
36384;DHT22;22418;51.210;6.976;2023-01-16T02:31:48;8.30;99.90
36384;DHT22;22418;51.210;6.976;2023-01-16T02:34:24;8.30;99.90
36384;DHT22;22418;51.210;6.976;2023-01-16T02:39:52;8.20;99.90
36384;DHT22;22418;51.210;6.976;2023-01-16T02:46:25;8.20;99.90
36384;DHT22;22418;51.210;6.976;2023-01-16T02:51:45;8.20;99.90
36384;DHT22;22418;51.210;6.976;2023-01-16T02:54:35;8.20;99.90
36384;DHT22;22418;51.210;6.976;2023-01-16T02:57:15;8.10;99.90
36384;DHT22;22418;51.210;6.976;2023-01-16T02:59:48;8.10;99.90
36384;DHT22;22418;51.210;6.976;2023-01-16T03:02:19;8.00;99.90
36384;DHT22;22418;51.210;6.976;2023-01-16T03:04:51;8.00;99.90
36384;DHT22;22418;51.210;6.976;2023-01-16T03:10:45;7.90;99.90
36384;DHT22;22418;51.210;6.976;2023-01-16T03:13:43;7.90;99.90
36384;DHT22;22418;51.210;6.976;2023-01-16T03:16:46;7.70;99.90
36384;DHT22;22418;51.210;6.976;2023-01-16T03:22:10;7.70;99.90
36384;DHT22;22418;51.210;6.976;2023-01-16T03:24:49;7.70;99.90
36384;DHT22;22418;51.210;6.976;2023-01-16T03:27:53;7.70;99.90
36384;DHT22;22418;51.210;6.976;2023-01-16T03:30:35;7.70;99.90
36384;DHT22;22418;51.210;6.976;2023-01-16T03:36:07;7.80;99.90
36384;DHT22;22418;51.210;6.976;2023-01-16T03:38:40;7.80;99.90
36384;DHT22;22418;51.210;6.976;2023-01-16T03:41:16;7.80;99.90
36384;DHT22;22418;51.210;6.976;2023-01-16T03:43:50;7.80;99.90
36384;DHT22;22418;51.210;6.976;2023-01-16T03:46:44;7.80;99.90
36384;DHT22;22418;51.210;6.976;2023-01-16T03:49:20;7.90;99.90
36384;DHT22;22418;51.210;6.976;2023-01-16T03:51:56;7.90;99.90
36384;DHT22;22418;51.210;6.976;2023-01-16T03:57:39;7.90;99.90
36384;DHT22;22418;51.210;6.976;2023-01-16T04:00:12;7.80;99.90
36384;DHT22;22418;51.210;6.976;2023-01-16T04:02:54;7.80;99.90
36384;DHT22;22418;51.210;6.976;2023-01-16T04:05:34;7.70;99.90
36384;DHT22;22418;51.210;6.976;2023-01-16T04:08:16;7.70;99.90
36384;DHT22;22418;51.210;6.976;2023-01-16T04:10:49;7.70;99.90
36384;DHT22;22418;51.210;6.976;2023-01-16T04:13:26;7.70;99.90
36384;DHT22;22418;51.210;6.976;2023-01-16T04:15:59;7.60;99.90
36384;DHT22;22418;51.210;6.976;2023-01-16T04:18:34;7.60;99.90
36384;DHT22;22418;51.210;6.976;2023-01-16T04:21:06;7.40;99.90
36384;DHT22;22418;51.210;6.976;2023-01-16T04:23:37;7.30;99.90
36384;DHT22;22418;51.210;6.976;2023-01-16T04:26:08;7.30;99.90
36384;DHT22;22418;51.210;6.976;2023-01-16T04:28:39;7.20;99.90
36384;DHT22;22418;51.210;6.976;2023-01-16T04:31:09;7.20;99.90
36384;DHT22;22418;51.210;6.976;2023-01-16T04:33:40;7.20;99.90
36384;DHT22;22418;51.210;6.976;2023-01-16T04:36:10;7.30;99.90
36384;DHT22;22418;51.210;6.976;2023-01-16T04:38:41;7.20;99.90
36384;DHT22;22418;51.210;6.976;2023-01-16T04:41:12;7.00;99.90
36384;DHT22;22418;51.210;6.976;2023-01-16T04:43:42;7.00;99.90
36384;DHT22;22418;51.210;6.976;2023-01-16T04:46:13;7.00;99.90
36384;DHT22;22418;51.210;6.976;2023-01-16T04:48:43;6.90;99.90
36384;DHT22;22418;51.210;6.976;2023-01-16T04:51:14;7.00;99.90
36384;DHT22;22418;51.210;6.976;2023-01-16T04:53:44;6.90;99.90
36384;DHT22;22418;51.210;6.976;2023-01-16T04:56:18;7.00;99.90
36384;DHT22;22418;51.210;6.976;2023-01-16T04:58:48;7.10;99.90
36384;DHT22;22418;51.210;6.976;2023-01-16T05:01:21;7.00;99.90
36384;DHT22;22418;51.210;6.976;2023-01-16T05:03:52;7.10;99.90
36384;DHT22;22418;51.210;6.976;2023-01-16T05:06:23;7.10;99.90
36384;DHT22;22418;51.210;6.976;2023-01-16T05:08:53;7.00;99.90
36384;DHT22;22418;51.210;6.976;2023-01-16T05:11:24;6.90;99.90
36384;DHT22;22418;51.210;6.976;2023-01-16T05:13:54;7.00;99.90
36384;DHT22;22418;51.210;6.976;2023-01-16T05:16:25;7.10;99.90
36384;DHT22;22418;51.210;6.976;2023-01-16T05:18:56;7.10;99.90
36384;DHT22;22418;51.210;6.976;2023-01-16T05:21:26;7.20;99.90
36384;DHT22;22418;51.210;6.976;2023-01-16T05:23:57;7.30;99.90
36384;DHT22;22418;51.210;6.976;2023-01-16T05:26:28;7.20;99.90
36384;DHT22;22418;51.210;6.976;2023-01-16T05:28:58;7.00;99.90
36384;DHT22;22418;51.210;6.976;2023-01-16T05:31:29;7.10;99.90
36384;DHT22;22418;51.210;6.976;2023-01-16T05:33:59;6.80;99.90
36384;DHT22;22418;51.210;6.976;2023-01-16T05:36:30;7.00;99.90
36384;DHT22;22418;51.210;6.976;2023-01-16T05:39:01;6.90;99.90
36384;DHT22;22418;51.210;6.976;2023-01-16T05:41:31;6.90;99.90
36384;DHT22;22418;51.210;6.976;2023-01-16T05:44:02;6.80;99.90
36384;DHT22;22418;51.210;6.976;2023-01-16T05:46:33;6.90;99.90
36384;DHT22;22418;51.210;6.976;2023-01-16T05:49:03;6.90;99.90
36384;DHT22;22418;51.210;6.976;2023-01-16T05:51:34;6.90;99.90
36384;DHT22;22418;51.210;6.976;2023-01-16T05:54:04;7.00;99.90
36384;DHT22;22418;51.210;6.976;2023-01-16T05:56:35;7.00;99.90
36384;DHT22;22418;51.210;6.976;2023-01-16T05:59:06;7.00;99.90
36384;DHT22;22418;51.210;6.976;2023-01-16T06:01:37;6.90;99.90
36384;DHT22;22418;51.210;6.976;2023-01-16T06:04:08;7.00;99.90
36384;DHT22;22418;51.210;6.976;2023-01-16T06:06:38;7.00;99.90
36384;DHT22;22418;51.210;6.976;2023-01-16T06:09:09;6.90;99.90
36384;DHT22;22418;51.210;6.976;2023-01-16T06:11:40;6.80;99.90
36384;DHT22;22418;51.210;6.976;2023-01-16T06:14:10;6.90;99.90
36384;DHT22;22418;51.210;6.976;2023-01-16T06:16:41;6.90;99.90
36384;DHT22;22418;51.210;6.976;2023-01-16T06:19:12;6.90;99.90
36384;DHT22;22418;51.210;6.976;2023-01-16T06:21:43;7.00;99.90
36384;DHT22;22418;51.210;6.976;2023-01-16T06:24:13;7.10;99.90
36384;DHT22;22418;51.210;6.976;2023-01-16T06:26:44;7.10;99.90
36384;DHT22;22418;51.210;6.976;2023-01-16T06:29:14;7.20;99.90
36384;DHT22;22418;51.210;6.976;2023-01-16T06:31:45;7.30;99.90
36384;DHT22;22418;51.210;6.976;2023-01-16T06:34:18;7.10;99.90
36384;DHT22;22418;51.210;6.976;2023-01-16T06:36:48;7.10;99.90
36384;DHT22;22418;51.210;6.976;2023-01-16T06:39:19;7.10;99.90
36384;DHT22;22418;51.210;6.976;2023-01-16T06:41:50;7.20;99.90
36384;DHT22;22418;51.210;6.976;2023-01-16T06:44:20;7.10;99.90
36384;DHT22;22418;51.210;6.976;2023-01-16T06:46:51;7.10;99.90
36384;DHT22;22418;51.210;6.976;2023-01-16T06:49:21;7.10;99.90
36384;DHT22;22418;51.210;6.976;2023-01-16T06:51:52;6.90;99.90
36384;DHT22;22418;51.210;6.976;2023-01-16T06:54:22;7.00;99.90
36384;DHT22;22418;51.210;6.976;2023-01-16T06:56:53;7.10;99.90
36384;DHT22;22418;51.210;6.976;2023-01-16T06:59:24;7.10;99.90
36384;DHT22;22418;51.210;6.976;2023-01-16T07:01:54;7.10;99.90
36384;DHT22;22418;51.210;6.976;2023-01-16T07:04:25;7.10;99.90
36384;DHT22;22418;51.210;6.976;2023-01-16T07:06:55;7.00;99.90
36384;DHT22;22418;51.210;6.976;2023-01-16T07:09:26;7.10;99.90
36384;DHT22;22418;51.210;6.976;2023-01-16T07:11:58;7.00;99.90
36384;DHT22;22418;51.210;6.976;2023-01-16T07:14:29;7.10;99.90
36384;DHT22;22418;51.210;6.976;2023-01-16T07:17:18;7.10;99.90
36384;DHT22;22418;51.210;6.976;2023-01-16T07:20:09;7.00;99.90
36384;DHT22;22418;51.210;6.976;2023-01-16T07:22:59;6.90;99.90
36384;DHT22;22418;51.210;6.976;2023-01-16T07:25:33;6.90;99.90
36384;DHT22;22418;51.210;6.976;2023-01-16T07:28:04;7.00;99.90
36384;DHT22;22418;51.210;6.976;2023-01-16T07:30:35;7.00;99.90
36384;DHT22;22418;51.210;6.976;2023-01-16T07:33:05;7.00;99.90
36384;DHT22;22418;51.210;6.976;2023-01-16T07:35:36;6.90;99.90
36384;DHT22;22418;51.210;6.976;2023-01-16T07:38:07;7.00;99.90
36384;DHT22;22418;51.210;6.976;2023-01-16T07:40:37;7.00;99.90
36384;DHT22;22418;51.210;6.976;2023-01-16T07:43:08;7.10;99.90
36384;DHT22;22418;51.210;6.976;2023-01-16T07:45:38;7.00;99.90
36384;DHT22;22418;51.210;6.976;2023-01-16T07:48:09;7.10;99.90
36384;DHT22;22418;51.210;6.976;2023-01-16T07:50:40;7.00;99.90
36384;DHT22;22418;51.210;6.976;2023-01-16T07:53:10;7.10;99.90
36384;DHT22;22418;51.210;6.976;2023-01-16T07:55:41;7.10;99.90
36384;DHT22;22418;51.210;6.976;2023-01-16T07:58:11;7.10;99.90
36384;DHT22;22418;51.210;6.976;2023-01-16T08:00:42;7.10;99.90
36384;DHT22;22418;51.210;6.976;2023-01-16T08:03:14;7.00;99.90
36384;DHT22;22418;51.210;6.976;2023-01-16T08:05:45;6.90;99.90
36384;DHT22;22418;51.210;6.976;2023-01-16T08:08:16;6.90;99.90
36384;DHT22;22418;51.210;6.976;2023-01-16T08:10:47;7.00;99.90
36384;DHT22;22418;51.210;6.976;2023-01-16T08:13:17;7.20;99.90
36384;DHT22;22418;51.210;6.976;2023-01-16T08:15:48;7.00;99.90
36384;DHT22;22418;51.210;6.976;2023-01-16T08:18:19;7.00;99.90
36384;DHT22;22418;51.210;6.976;2023-01-16T08:20:50;7.00;99.90
36384;DHT22;22418;51.210;6.976;2023-01-16T08:23:20;7.20;99.90
36384;DHT22;22418;51.210;6.976;2023-01-16T08:25:51;7.00;99.90
36384;DHT22;22418;51.210;6.976;2023-01-16T08:28:22;6.90;99.90
36384;DHT22;22418;51.210;6.976;2023-01-16T08:30:53;7.00;99.90
36384;DHT22;22418;51.210;6.976;2023-01-16T08:33:23;7.00;99.90
36384;DHT22;22418;51.210;6.976;2023-01-16T08:35:56;7.20;99.90
36384;DHT22;22418;51.210;6.976;2023-01-16T08:38:27;7.30;99.90
36384;DHT22;22418;51.210;6.976;2023-01-16T08:40:58;7.20;99.90
36384;DHT22;22418;51.210;6.976;2023-01-16T08:43:28;7.10;99.90
36384;DHT22;22418;51.210;6.976;2023-01-16T08:46:20;7.30;99.90
36384;DHT22;22418;51.210;6.976;2023-01-16T08:49:14;7.10;99.90
36384;DHT22;22418;51.210;6.976;2023-01-16T08:52:03;7.10;99.90
36384;DHT22;22418;51.210;6.976;2023-01-16T08:54:34;7.10;99.90
36384;DHT22;22418;51.210;6.976;2023-01-16T08:57:04;7.20;99.90
36384;DHT22;22418;51.210;6.976;2023-01-16T08:59:35;7.30;99.90
36384;DHT22;22418;51.210;6.976;2023-01-16T09:02:08;7.30;99.90
36384;DHT22;22418;51.210;6.976;2023-01-16T09:04:41;7.30;99.90
36384;DHT22;22418;51.210;6.976;2023-01-16T09:07:11;7.30;99.90
36384;DHT22;22418;51.210;6.976;2023-01-16T09:09:42;7.30;99.90
36384;DHT22;22418;51.210;6.976;2023-01-16T09:12:13;7.40;99.90
36384;DHT22;22418;51.210;6.976;2023-01-16T09:15:03;7.40;99.90
36384;DHT22;22418;51.210;6.976;2023-01-16T09:17:34;7.30;99.90
36384;DHT22;22418;51.210;6.976;2023-01-16T09:20:05;7.30;99.90
36384;DHT22;22418;51.210;6.976;2023-01-16T09:22:36;7.20;99.90
36384;DHT22;22418;51.210;6.976;2023-01-16T09:25:07;7.10;99.90
36384;DHT22;22418;51.210;6.976;2023-01-16T09:27:37;7.10;99.90
36384;DHT22;22418;51.210;6.976;2023-01-16T09:30:08;7.10;99.90
36384;DHT22;22418;51.210;6.976;2023-01-16T09:32:39;7.10;99.90
36384;DHT22;22418;51.210;6.976;2023-01-16T09:35:10;7.20;99.90
36384;DHT22;22418;51.210;6.976;2023-01-16T09:37:42;7.20;99.90
36384;DHT22;22418;51.210;6.976;2023-01-16T09:40:20;7.20;99.90
36384;DHT22;22418;51.210;6.976;2023-01-16T09:42:58;7.10;99.90
36384;DHT22;22418;51.210;6.976;2023-01-16T09:45:53;7.20;99.90
36384;DHT22;22418;51.210;6.976;2023-01-16T09:48:30;7.20;99.90
36384;DHT22;22418;51.210;6.976;2023-01-16T09:51:14;7.20;99.90
36384;DHT22;22418;51.210;6.976;2023-01-16T09:53:51;7.20;99.90
36384;DHT22;22418;51.210;6.976;2023-01-16T09:56:44;7.20;99.90
36384;DHT22;22418;51.210;6.976;2023-01-16T09:59:49;7.10;99.90
36384;DHT22;22418;51.210;6.976;2023-01-16T10:02:27;7.20;99.90
36384;DHT22;22418;51.210;6.976;2023-01-16T10:04:59;7.20;99.90
36384;DHT22;22418;51.210;6.976;2023-01-16T10:10:42;7.10;99.90
36384;DHT22;22418;51.210;6.976;2023-01-16T10:13:46;7.20;99.90
36384;DHT22;22418;51.210;6.976;2023-01-16T10:22:09;7.10;99.90
36384;DHT22;22418;51.210;6.976;2023-01-16T10:24:48;7.30;99.90
36384;DHT22;22418;51.210;6.976;2023-01-16T10:27:36;7.40;99.90
36384;DHT22;22418;51.210;6.976;2023-01-16T10:30:33;7.50;99.90
36384;DHT22;22418;51.210;6.976;2023-01-16T10:33:17;7.50;99.90
36384;DHT22;22418;51.210;6.976;2023-01-16T10:35:50;7.50;99.90
36384;DHT22;22418;51.210;6.976;2023-01-16T10:38:23;7.40;99.90
36384;DHT22;22418;51.210;6.976;2023-01-16T10:41:30;7.30;99.90
36384;DHT22;22418;51.210;6.976;2023-01-16T10:44:49;7.40;99.90
36384;DHT22;22418;51.210;6.976;2023-01-16T10:47:43;7.40;99.90
36384;DHT22;22418;51.210;6.976;2023-01-16T10:50:32;7.50;99.90
36384;DHT22;22418;51.210;6.976;2023-01-16T10:53:08;7.50;99.90
36384;DHT22;22418;51.210;6.976;2023-01-16T10:55:43;7.50;99.90
36384;DHT22;22418;51.210;6.976;2023-01-16T11:00:48;7.50;99.90
36384;DHT22;22418;51.210;6.976;2023-01-16T11:03:35;7.40;99.90
36384;DHT22;22418;51.210;6.976;2023-01-16T11:06:13;7.20;99.90
36384;DHT22;22418;51.210;6.976;2023-01-16T11:08:47;7.40;99.90
36384;DHT22;22418;51.210;6.976;2023-01-16T11:11:18;7.40;99.90
36384;DHT22;22418;51.210;6.976;2023-01-16T11:17:24;7.60;99.90
36384;DHT22;22418;51.210;6.976;2023-01-16T11:22:56;7.30;99.90
36384;DHT22;22418;51.210;6.976;2023-01-16T11:25:28;7.40;99.90
36384;DHT22;22418;51.210;6.976;2023-01-16T11:28:02;7.50;99.90
36384;DHT22;22418;51.210;6.976;2023-01-16T11:30:40;7.50;99.90
36384;DHT22;22418;51.210;6.976;2023-01-16T11:33:22;7.60;99.90
36384;DHT22;22418;51.210;6.976;2023-01-16T11:35:55;7.60;99.90
36384;DHT22;22418;51.210;6.976;2023-01-16T11:38:29;7.60;99.90
36384;DHT22;22418;51.210;6.976;2023-01-16T11:41:01;7.50;99.90
36384;DHT22;22418;51.210;6.976;2023-01-16T11:43:34;7.40;99.90
36384;DHT22;22418;51.210;6.976;2023-01-16T11:46:38;7.50;99.90
36384;DHT22;22418;51.210;6.976;2023-01-16T11:49:16;7.50;99.90
36384;DHT22;22418;51.210;6.976;2023-01-16T11:51:52;7.40;99.90
36384;DHT22;22418;51.210;6.976;2023-01-16T11:54:27;7.40;99.90
36384;DHT22;22418;51.210;6.976;2023-01-16T12:00:59;7.50;99.90
36384;DHT22;22418;51.210;6.976;2023-01-16T12:12:23;7.90;99.90
36384;DHT22;22418;51.210;6.976;2023-01-16T12:18:12;7.70;99.90
36384;DHT22;22418;51.210;6.976;2023-01-16T12:20:50;7.60;99.90
36384;DHT22;22418;51.210;6.976;2023-01-16T12:26:17;7.60;99.90
36384;DHT22;22418;51.210;6.976;2023-01-16T12:38:25;7.50;99.90
36384;DHT22;22418;51.210;6.976;2023-01-16T12:41:17;7.50;99.90
36384;DHT22;22418;51.210;6.976;2023-01-16T12:47:16;7.70;99.90
36384;DHT22;22418;51.210;6.976;2023-01-16T12:58:27;7.40;99.90
36384;DHT22;22418;51.210;6.976;2023-01-16T13:01:10;7.00;99.90
36384;DHT22;22418;51.210;6.976;2023-01-16T13:06:57;7.10;99.90
36384;DHT22;22418;51.210;6.976;2023-01-16T13:09:51;7.20;99.90
36384;DHT22;22418;51.210;6.976;2023-01-16T13:12:44;7.00;99.90
36384;DHT22;22418;51.210;6.976;2023-01-16T13:15:36;7.00;99.90
36384;DHT22;22418;51.210;6.976;2023-01-16T13:18:32;7.00;99.90
36384;DHT22;22418;51.210;6.976;2023-01-16T13:21:08;7.00;99.90
36384;DHT22;22418;51.210;6.976;2023-01-16T13:23:52;7.10;99.90
36384;DHT22;22418;51.210;6.976;2023-01-16T13:26:25;7.20;99.90
36384;DHT22;22418;51.210;6.976;2023-01-16T13:29:11;7.10;99.90
36384;DHT22;22418;51.210;6.976;2023-01-16T13:31:46;6.80;99.90
36384;DHT22;22418;51.210;6.976;2023-01-16T13:34:30;6.80;99.90
36384;DHT22;22418;51.210;6.976;2023-01-16T13:42:31;7.10;99.90
36384;DHT22;22418;51.210;6.976;2023-01-16T13:45:07;7.20;99.90
36384;DHT22;22418;51.210;6.976;2023-01-16T13:48:04;7.40;99.90
36384;DHT22;22418;51.210;6.976;2023-01-16T13:50:35;7.50;99.90
36384;DHT22;22418;51.210;6.976;2023-01-16T13:53:08;7.60;99.90
36384;DHT22;22418;51.210;6.976;2023-01-16T13:55:40;7.60;99.90
36384;DHT22;22418;51.210;6.976;2023-01-16T13:58:20;7.60;99.90
36384;DHT22;22418;51.210;6.976;2023-01-16T14:00:58;7.60;99.90
36384;DHT22;22418;51.210;6.976;2023-01-16T14:03:31;7.50;99.90
36384;DHT22;22418;51.210;6.976;2023-01-16T14:08:48;7.60;99.90
36384;DHT22;22418;51.210;6.976;2023-01-16T14:11:40;7.60;99.90
36384;DHT22;22418;51.210;6.976;2023-01-16T14:17:14;7.30;99.90
36384;DHT22;22418;51.210;6.976;2023-01-16T14:22:47;7.30;99.90
36384;DHT22;22418;51.210;6.976;2023-01-16T14:25:39;7.20;99.90
36384;DHT22;22418;51.210;6.976;2023-01-16T14:28:16;7.20;99.90
36384;DHT22;22418;51.210;6.976;2023-01-16T14:30:47;7.10;99.90
36384;DHT22;22418;51.210;6.976;2023-01-16T14:33:19;7.10;99.90
36384;DHT22;22418;51.210;6.976;2023-01-16T14:35:51;7.00;99.90
36384;DHT22;22418;51.210;6.976;2023-01-16T14:38:26;7.00;99.90
36384;DHT22;22418;51.210;6.976;2023-01-16T14:41:05;7.00;99.90
36384;DHT22;22418;51.210;6.976;2023-01-16T14:47:25;7.10;99.90
36384;DHT22;22418;51.210;6.976;2023-01-16T14:50:16;7.20;99.90
36384;DHT22;22418;51.210;6.976;2023-01-16T14:56:21;7.00;99.90
36384;DHT22;22418;51.210;6.976;2023-01-16T14:59:16;7.00;99.90
36384;DHT22;22418;51.210;6.976;2023-01-16T15:01:53;6.90;99.90
36384;DHT22;22418;51.210;6.976;2023-01-16T15:04:54;7.00;99.90
36384;DHT22;22418;51.210;6.976;2023-01-16T15:07:48;7.10;99.90
36384;DHT22;22418;51.210;6.976;2023-01-16T15:10:30;7.00;99.90
36384;DHT22;22418;51.210;6.976;2023-01-16T15:18:21;7.00;99.90
36384;DHT22;22418;51.210;6.976;2023-01-16T15:21:16;7.00;99.90
36384;DHT22;22418;51.210;6.976;2023-01-16T15:24:08;6.90;99.90
36384;DHT22;22418;51.210;6.976;2023-01-16T15:27:00;7.00;99.90
36384;DHT22;22418;51.210;6.976;2023-01-16T15:32:14;7.10;99.90
36384;DHT22;22418;51.210;6.976;2023-01-16T15:35:15;7.00;99.90
36384;DHT22;22418;51.210;6.976;2023-01-16T15:37:54;7.10;99.90
36384;DHT22;22418;51.210;6.976;2023-01-16T15:40:28;7.10;99.90
36384;DHT22;22418;51.210;6.976;2023-01-16T15:42:59;7.10;99.90
36384;DHT22;22418;51.210;6.976;2023-01-16T15:46:05;7.10;99.90
36384;DHT22;22418;51.210;6.976;2023-01-16T15:51:32;7.30;99.90
36384;DHT22;22418;51.210;6.976;2023-01-16T15:54:02;7.20;99.90
36384;DHT22;22418;51.210;6.976;2023-01-16T15:56:35;7.10;99.90
36384;DHT22;22418;51.210;6.976;2023-01-16T15:59:25;7.10;99.90
36384;DHT22;22418;51.210;6.976;2023-01-16T16:02:19;7.10;99.90
36384;DHT22;22418;51.210;6.976;2023-01-16T16:05:02;7.20;99.90
36384;DHT22;22418;51.210;6.976;2023-01-16T16:07:32;7.30;99.90
36384;DHT22;22418;51.210;6.976;2023-01-16T16:10:03;7.20;99.90
36384;DHT22;22418;51.210;6.976;2023-01-16T16:12:34;7.30;99.90
36384;DHT22;22418;51.210;6.976;2023-01-16T16:15:20;7.20;99.90
36384;DHT22;22418;51.210;6.976;2023-01-16T16:18:14;7.20;99.90
36384;DHT22;22418;51.210;6.976;2023-01-16T16:20:47;7.20;99.90
36384;DHT22;22418;51.210;6.976;2023-01-16T16:23:20;7.30;99.90
36384;DHT22;22418;51.210;6.976;2023-01-16T16:25:57;7.30;99.90
36384;DHT22;22418;51.210;6.976;2023-01-16T16:31:32;7.30;99.90
36384;DHT22;22418;51.210;6.976;2023-01-16T16:34:13;7.30;99.90
36384;DHT22;22418;51.210;6.976;2023-01-16T16:36:46;7.20;99.90
36384;DHT22;22418;51.210;6.976;2023-01-16T16:42:00;7.30;99.90
36384;DHT22;22418;51.210;6.976;2023-01-16T16:47:39;7.30;99.90
36384;DHT22;22418;51.210;6.976;2023-01-16T16:52:51;7.30;99.90
36384;DHT22;22418;51.210;6.976;2023-01-16T16:55:27;7.20;99.90
36384;DHT22;22418;51.210;6.976;2023-01-16T16:58:01;7.30;99.90
36384;DHT22;22418;51.210;6.976;2023-01-16T17:00:34;7.30;99.90
36384;DHT22;22418;51.210;6.976;2023-01-16T17:03:18;7.30;99.90
36384;DHT22;22418;51.210;6.976;2023-01-16T17:05:50;7.30;99.90
36384;DHT22;22418;51.210;6.976;2023-01-16T17:08:26;7.30;99.90
36384;DHT22;22418;51.210;6.976;2023-01-16T17:10:59;7.40;99.90
36384;DHT22;22418;51.210;6.976;2023-01-16T17:13:30;7.40;99.90
36384;DHT22;22418;51.210;6.976;2023-01-16T17:16:00;7.40;99.90
36384;DHT22;22418;51.210;6.976;2023-01-16T17:18:32;7.40;99.90
36384;DHT22;22418;51.210;6.976;2023-01-16T17:21:03;7.40;99.90
36384;DHT22;22418;51.210;6.976;2023-01-16T17:23:34;7.40;99.90
36384;DHT22;22418;51.210;6.976;2023-01-16T17:26:04;7.50;99.90
36384;DHT22;22418;51.210;6.976;2023-01-16T17:28:35;7.40;99.90
36384;DHT22;22418;51.210;6.976;2023-01-16T17:31:12;7.40;99.90
36384;DHT22;22418;51.210;6.976;2023-01-16T17:33:44;7.40;99.90
36384;DHT22;22418;51.210;6.976;2023-01-16T17:36:23;7.30;99.90
36384;DHT22;22418;51.210;6.976;2023-01-16T17:38:55;7.30;99.90
36384;DHT22;22418;51.210;6.976;2023-01-16T17:41:26;7.30;99.90
36384;DHT22;22418;51.210;6.976;2023-01-16T17:44:19;7.20;99.90
36384;DHT22;22418;51.210;6.976;2023-01-16T17:47:09;7.30;99.90
36384;DHT22;22418;51.210;6.976;2023-01-16T17:49:40;7.30;99.90
36384;DHT22;22418;51.210;6.976;2023-01-16T17:52:29;7.40;99.90
36384;DHT22;22418;51.210;6.976;2023-01-16T17:55:00;7.40;99.90
36384;DHT22;22418;51.210;6.976;2023-01-16T17:57:49;7.40;99.90
36384;DHT22;22418;51.210;6.976;2023-01-16T18:00:19;7.40;99.90
36384;DHT22;22418;51.210;6.976;2023-01-16T18:02:50;7.40;99.90
36384;DHT22;22418;51.210;6.976;2023-01-16T18:05:21;7.50;99.90
36384;DHT22;22418;51.210;6.976;2023-01-16T18:07:51;7.40;99.90
36384;DHT22;22418;51.210;6.976;2023-01-16T18:10:22;7.40;99.90
36384;DHT22;22418;51.210;6.976;2023-01-16T18:12:53;7.40;99.90
36384;DHT22;22418;51.210;6.976;2023-01-16T18:15:43;7.40;99.90
36384;DHT22;22418;51.210;6.976;2023-01-16T18:18:53;7.30;99.90
36384;DHT22;22418;51.210;6.976;2023-01-16T18:21:23;7.30;99.90
36384;DHT22;22418;51.210;6.976;2023-01-16T18:24:13;7.40;99.90
36384;DHT22;22418;51.210;6.976;2023-01-16T18:26:43;7.50;99.90
36384;DHT22;22418;51.210;6.976;2023-01-16T18:29:15;7.50;99.90
36384;DHT22;22418;51.210;6.976;2023-01-16T18:31:48;7.50;99.90
36384;DHT22;22418;51.210;6.976;2023-01-16T18:34:37;7.60;99.90
36384;DHT22;22418;51.210;6.976;2023-01-16T18:37:08;7.60;99.90
36384;DHT22;22418;51.210;6.976;2023-01-16T18:39:38;7.60;99.90
36384;DHT22;22418;51.210;6.976;2023-01-16T18:42:28;7.60;99.90
36384;DHT22;22418;51.210;6.976;2023-01-16T18:45:34;7.60;99.90
36384;DHT22;22418;51.210;6.976;2023-01-16T18:48:23;7.60;99.90
36384;DHT22;22418;51.210;6.976;2023-01-16T18:51:15;7.50;99.90
36384;DHT22;22418;51.210;6.976;2023-01-16T18:54:15;7.60;99.90
36384;DHT22;22418;51.210;6.976;2023-01-16T18:57:13;7.60;99.90